CST,Max TemperatureF,Mean TemperatureF,Min TemperatureF,Max Dew PointF,MeanDew PointF,Min DewpointF,Max Humidity, Mean Humidity, Min Humidity, Max Sea Level PressureIn, Mean Sea Level PressureIn, Min Sea Level PressureIn, Max VisibilityMiles, Mean VisibilityMiles, Min VisibilityMiles, Max Wind SpeedMPH, Mean Wind SpeedMPH, Max Gust SpeedMPH,PrecipitationIn, CloudCover, Events, WindDirDegrees
2013-11-1,71,57,43,42,39,35,82,55,28,30.05,29.88,29.79,10,10,10,21,8,28,0.00,1,,280
2013-11-2,62,52,41,39,33,28,73,50,27,30.28,30.19,30.06,10,10,10,23,10,29,0.00,0,,325
2013-11-3,62,51,39,39,35,33,79,59,39,30.22,30.10,29.97,10,10,10,24,13,34,0.00,4,,159
2013-11-4,65,59,52,51,48,40,80,68,55,30.10,30.03,29.95,10,10,10,25,14,32,T,7,Rain,160
2013-11-5,65,61,56,61,57,52,93,87,80,30.09,29.97,29.89,10,4,1,21,13,28,1.00,8,Rain,163
2013-11-6,61,48,34,61,41,33,96,73,50,30.38,30.16,29.93,10,9,2,25,11,31,0.27,6,Rain,332
2013-11-7,66,48,30,38,33,28,92,60,28,30.46,30.39,30.33,10,10,7,9,3,11,0.00,0,Fog,181
2013-11-8,68,55,41,37,33,27,76,49,22,30.32,30.16,30.03,10,10,10,29,14,39,0.00,4,,176
2013-11-9,68,58,47,44,40,35,71,52,32,30.27,30.14,30.05,10,10,10,17,8,22,0.00,3,,162
2013-11-10,68,57,45,45,44,42,86,64,42,30.36,30.29,30.24,10,10,10,9,3,12,0.00,4,,157
2013-11-11,71,57,43,54,46,33,86,68,49,30.46,30.26,30.15,10,10,7,28,11,34,T,7,Rain,25
2013-11-12,43,34,24,30,17,13,70,52,33,30.82,30.72,30.50,10,10,10,25,13,38,0.00,3,,357
2013-11-13,52,37,21,22,19,16,84,54,24,30.73,30.53,30.32,10,10,10,17,8,21,0.00,0,,181
2013-11-14,56,45,33,32,24,20,61,45,28,30.30,30.13,30.01,10,10,10,22,13,28,0.00,6,,168
2013-11-15,62,53,43,50,44,32,83,69,55,30.02,29.88,29.79,10,10,6,23,12,30,0.21,5,Rain,162
2013-11-16,74,65,55,62,56,51,86,70,53,29.78,29.63,29.52,10,9,4,31,21,41,0.08,6,Rain,171
2013-11-17,74,61,47,63,38,17,78,48,17,30.10,29.77,29.50,10,10,10,29,13,38,0.00,0,,289
2013-11-18,65,50,35,35,27,16,76,46,15,30.28,30.21,30.10,10,10,10,14,5,19,0.00,3,,46
2013-11-19,59,53,46,29,26,21,49,37,24,30.22,30.11,30.00,10,10,10,21,13,27,0.00,7,,138
2013-11-20,60,53,45,44,35,28,57,47,36,30.00,29.93,29.86,10,10,7,28,13,35,0.19,7,Rain-Thunderstorm,161
2013-11-21,60,56,51,50,44,32,83,68,53,30.39,30.10,29.92,10,8,1,21,9,27,0.09,8,Rain,34
2013-11-22,35,33,30,32,28,23,92,81,69,30.58,30.52,30.40,10,8,4,24,16,29,0.07,8,Rain,353
2013-11-23,40,34,27,26,18,11,78,55,32,30.72,30.66,30.58,10,10,10,21,13,26,0.00,8,,9
2013-11-24,32,28,23,16,12,10,65,56,46,30.72,30.58,30.36,10,10,10,17,7,23,0.00,8,,66
2013-11-25,36,34,31,29,24,15,75,60,45,30.35,30.27,30.22,10,10,8,13,5,15,T,8,Rain,203
2013-11-26,48,38,27,29,23,11,78,58,38,30.42,30.28,30.20,10,10,9,28,12,33,T,2,Snow,339
2013-11-27,39,29,18,13,10,7,74,52,29,30.51,30.41,30.32,10,10,10,18,6,22,0.00,0,,21
2013-11-28,57,43,29,28,21,13,53,42,30,30.44,30.34,30.29,10,10,10,15,8,19,0.00,4,,168
2013-11-29,56,41,25,27,24,21,78,52,26,30.51,30.40,30.30,10,10,10,17,9,22,0.00,4,,151
2013-11-30,61,51,40,44,37,28,86,69,51,30.28,30.17,30.09,10,10,9,18,10,22,0.00,3,,175